sensor_id;sensor_type;location;lat;lon;timestamp;P1;durP1;ratioP1;P2;durP2;ratioP2
12048;SDS011;6085;49.452;8.502;2022-09-02T00:00:53;4.28;;;3.97;;
12048;SDS011;6085;49.452;8.502;2022-09-02T00:04:59;5.00;;;4.00;;
12048;SDS011;6085;49.452;8.502;2022-09-02T00:09:03;6.13;;;4.45;;
12048;SDS011;6085;49.452;8.502;2022-09-02T00:13:08;4.10;;;3.78;;
12048;SDS011;6085;49.452;8.502;2022-09-02T00:17:11;4.10;;;3.80;;
12048;SDS011;6085;49.452;8.502;2022-09-02T00:21:13;4.13;;;3.78;;
12048;SDS011;6085;49.452;8.502;2022-09-02T00:25:17;3.78;;;3.47;;
12048;SDS011;6085;49.452;8.502;2022-09-02T00:29:18;3.60;;;3.30;;
12048;SDS011;6085;49.452;8.502;2022-09-02T00:33:20;3.85;;;3.55;;
12048;SDS011;6085;49.452;8.502;2022-09-02T00:37:22;3.92;;;3.63;;
12048;SDS011;6085;49.452;8.502;2022-09-02T00:41:27;3.42;;;3.13;;
12048;SDS011;6085;49.452;8.502;2022-09-02T00:45:29;3.58;;;3.28;;
12048;SDS011;6085;49.452;8.502;2022-09-02T00:49:31;3.20;;;3.00;;
12048;SDS011;6085;49.452;8.502;2022-09-02T00:53:35;3.42;;;3.13;;
12048;SDS011;6085;49.452;8.502;2022-09-02T00:57:41;3.58;;;3.38;;
12048;SDS011;6085;49.452;8.502;2022-09-02T01:01:47;4.63;;;3.30;;
12048;SDS011;6085;49.452;8.502;2022-09-02T01:05:49;3.60;;;3.30;;
12048;SDS011;6085;49.452;8.502;2022-09-02T01:09:53;3.15;;;2.95;;
12048;SDS011;6085;49.452;8.502;2022-09-02T01:13:58;3.08;;;2.88;;
12048;SDS011;6085;49.452;8.502;2022-09-02T01:18:00;3.50;;;3.20;;
12048;SDS011;6085;49.452;8.502;2022-09-02T01:22:06;2.90;;;2.70;;
12048;SDS011;6085;49.452;8.502;2022-09-02T01:26:16;3.10;;;2.90;;
12048;SDS011;6085;49.452;8.502;2022-09-02T01:30:20;3.30;;;3.00;;
12048;SDS011;6085;49.452;8.502;2022-09-02T01:34:23;3.70;;;3.40;;
12048;SDS011;6085;49.452;8.502;2022-09-02T01:38:27;2.80;;;2.60;;
12048;SDS011;6085;49.452;8.502;2022-09-02T01:42:29;3.45;;;3.17;;
12048;SDS011;6085;49.452;8.502;2022-09-02T01:46:31;3.70;;;2.60;;
12048;SDS011;6085;49.452;8.502;2022-09-02T01:50:34;3.20;;;3.00;;
12048;SDS011;6085;49.452;8.502;2022-09-02T01:54:38;3.42;;;3.22;;
12048;SDS011;6085;49.452;8.502;2022-09-02T01:58:40;3.40;;;3.10;;
12048;SDS011;6085;49.452;8.502;2022-09-02T02:02:42;3.40;;;3.10;;
12048;SDS011;6085;49.452;8.502;2022-09-02T02:06:45;2.83;;;2.63;;
12048;SDS011;6085;49.452;8.502;2022-09-02T02:10:49;4.07;;;2.75;;
12048;SDS011;6085;49.452;8.502;2022-09-02T02:14:51;3.10;;;2.90;;
12048;SDS011;6085;49.452;8.502;2022-09-02T02:18:53;3.10;;;2.80;;
12048;SDS011;6085;49.452;8.502;2022-09-02T02:22:55;3.00;;;2.70;;
12048;SDS011;6085;49.452;8.502;2022-09-02T02:26:58;3.00;;;2.80;;
12048;SDS011;6085;49.452;8.502;2022-09-02T02:31:00;3.00;;;2.80;;
12048;SDS011;6085;49.452;8.502;2022-09-02T02:35:02;2.75;;;2.55;;
12048;SDS011;6085;49.452;8.502;2022-09-02T02:39:05;3.30;;;3.00;;
12048;SDS011;6085;49.452;8.502;2022-09-02T02:43:10;2.72;;;2.55;;
12048;SDS011;6085;49.452;8.502;2022-09-02T02:47:12;2.95;;;2.70;;
12048;SDS011;6085;49.452;8.502;2022-09-02T02:51:15;3.00;;;2.80;;
12048;SDS011;6085;49.452;8.502;2022-09-02T02:55:17;3.35;;;2.67;;
12048;SDS011;6085;49.452;8.502;2022-09-02T02:59:20;2.80;;;2.60;;
12048;SDS011;6085;49.452;8.502;2022-09-02T03:03:22;2.80;;;2.60;;
12048;SDS011;6085;49.452;8.502;2022-09-02T03:07:25;2.65;;;2.45;;
12048;SDS011;6085;49.452;8.502;2022-09-02T03:11:27;3.85;;;2.90;;
12048;SDS011;6085;49.452;8.502;2022-09-02T03:15:33;2.83;;;2.63;;
12048;SDS011;6085;49.452;8.502;2022-09-02T03:19:35;2.80;;;2.60;;
12048;SDS011;6085;49.452;8.502;2022-09-02T03:23:37;2.80;;;2.60;;
12048;SDS011;6085;49.452;8.502;2022-09-02T03:27:40;2.80;;;2.60;;
12048;SDS011;6085;49.452;8.502;2022-09-02T03:31:45;3.10;;;2.90;;
12048;SDS011;6085;49.452;8.502;2022-09-02T03:35:47;2.85;;;2.65;;
12048;SDS011;6085;49.452;8.502;2022-09-02T03:39:49;2.92;;;2.72;;
12048;SDS011;6085;49.452;8.502;2022-09-02T03:43:51;2.22;;;2.13;;
12048;SDS011;6085;49.452;8.502;2022-09-02T03:47:54;2.03;;;1.92;;
12048;SDS011;6085;49.452;8.502;2022-09-02T03:51:56;2.60;;;2.40;;
12048;SDS011;6085;49.452;8.502;2022-09-02T03:56:02;2.30;;;2.10;;
12048;SDS011;6085;49.452;8.502;2022-09-02T04:00:06;2.28;;;2.17;;
12048;SDS011;6085;49.452;8.502;2022-09-02T04:04:10;3.03;;;2.10;;
12048;SDS011;6085;49.452;8.502;2022-09-02T04:08:13;3.15;;;2.50;;
12048;SDS011;6085;49.452;8.502;2022-09-02T04:12:15;2.42;;;2.22;;
12048;SDS011;6085;49.452;8.502;2022-09-02T04:21:15;3.88;;;3.53;;
12048;SDS011;6085;49.452;8.502;2022-09-02T04:25:18;3.83;;;3.53;;
12048;SDS011;6085;49.452;8.502;2022-09-02T04:29:20;4.20;;;3.75;;
12048;SDS011;6085;49.452;8.502;2022-09-02T04:33:23;6.10;;;4.60;;
12048;SDS011;6085;49.452;8.502;2022-09-02T04:37:26;5.05;;;4.22;;
12048;SDS011;6085;49.452;8.502;2022-09-02T04:41:28;5.53;;;4.90;;
12048;SDS011;6085;49.452;8.502;2022-09-02T04:45:31;9.75;;;5.10;;
12048;SDS011;6085;49.452;8.502;2022-09-02T04:49:33;7.00;;;5.28;;
12048;SDS011;6085;49.452;8.502;2022-09-02T04:53:36;6.63;;;5.10;;
12048;SDS011;6085;49.452;8.502;2022-09-02T04:57:38;7.78;;;5.78;;
12048;SDS011;6085;49.452;8.502;2022-09-02T05:01:41;6.85;;;5.80;;
12048;SDS011;6085;49.452;8.502;2022-09-02T05:05:44;6.65;;;5.75;;
12048;SDS011;6085;49.452;8.502;2022-09-02T05:09:48;9.85;;;7.13;;
12048;SDS011;6085;49.452;8.502;2022-09-02T05:13:50;7.20;;;5.72;;
12048;SDS011;6085;49.452;8.502;2022-09-02T05:17:52;7.75;;;5.32;;
12048;SDS011;6085;49.452;8.502;2022-09-02T05:21:54;7.20;;;5.70;;
12048;SDS011;6085;49.452;8.502;2022-09-02T05:25:59;10.05;;;6.20;;
12048;SDS011;6085;49.452;8.502;2022-09-02T05:30:04;7.68;;;5.93;;
12048;SDS011;6085;49.452;8.502;2022-09-02T05:34:06;7.15;;;5.50;;
12048;SDS011;6085;49.452;8.502;2022-09-02T05:38:08;8.93;;;5.80;;
12048;SDS011;6085;49.452;8.502;2022-09-02T05:42:12;5.65;;;5.15;;
12048;SDS011;6085;49.452;8.502;2022-09-02T05:46:16;6.72;;;5.15;;
12048;SDS011;6085;49.452;8.502;2022-09-02T05:50:21;6.88;;;5.70;;
12048;SDS011;6085;49.452;8.502;2022-09-02T05:54:24;7.03;;;5.07;;
12048;SDS011;6085;49.452;8.502;2022-09-02T05:58:29;8.38;;;5.80;;
12048;SDS011;6085;49.452;8.502;2022-09-02T06:02:31;7.93;;;5.57;;
12048;SDS011;6085;49.452;8.502;2022-09-02T06:06:33;7.15;;;5.15;;
12048;SDS011;6085;49.452;8.502;2022-09-02T06:10:39;5.57;;;4.80;;
12048;SDS011;6085;49.452;8.502;2022-09-02T06:14:43;5.68;;;5.00;;
12048;SDS011;6085;49.452;8.502;2022-09-02T06:18:45;6.28;;;4.00;;
12048;SDS011;6085;49.452;8.502;2022-09-02T06:22:48;4.78;;;4.15;;
12048;SDS011;6085;49.452;8.502;2022-09-02T06:26:50;7.15;;;4.40;;
12048;SDS011;6085;49.452;8.502;2022-09-02T06:30:54;5.63;;;4.53;;
12048;SDS011;6085;49.452;8.502;2022-09-02T06:34:56;5.97;;;4.30;;
12048;SDS011;6085;49.452;8.502;2022-09-02T06:38:59;6.00;;;4.35;;
12048;SDS011;6085;49.452;8.502;2022-09-02T06:43:01;5.32;;;3.95;;
12048;SDS011;6085;49.452;8.502;2022-09-02T06:47:04;4.78;;;3.58;;
12048;SDS011;6085;49.452;8.502;2022-09-02T06:51:06;4.35;;;3.13;;
12048;SDS011;6085;49.452;8.502;2022-09-02T06:55:08;3.25;;;2.30;;
12048;SDS011;6085;49.452;8.502;2022-09-02T06:59:11;2.45;;;2.25;;
12048;SDS011;6085;49.452;8.502;2022-09-02T07:03:14;2.47;;;2.28;;
12048;SDS011;6085;49.452;8.502;2022-09-02T07:07:33;3.25;;;2.50;;
12048;SDS011;6085;49.452;8.502;2022-09-02T07:11:36;3.78;;;2.17;;
12048;SDS011;6085;49.452;8.502;2022-09-02T07:15:39;2.30;;;1.60;;
12048;SDS011;6085;49.452;8.502;2022-09-02T07:19:43;1.35;;;1.25;;
12048;SDS011;6085;49.452;8.502;2022-09-02T07:23:45;1.40;;;1.30;;
12048;SDS011;6085;49.452;8.502;2022-09-02T07:27:46;1.55;;;1.30;;
12048;SDS011;6085;49.452;8.502;2022-09-02T07:31:50;1.40;;;1.30;;
12048;SDS011;6085;49.452;8.502;2022-09-02T07:35:53;1.92;;;1.30;;
12048;SDS011;6085;49.452;8.502;2022-09-02T07:39:56;1.63;;;1.33;;
12048;SDS011;6085;49.452;8.502;2022-09-02T07:43:58;1.40;;;1.30;;
12048;SDS011;6085;49.452;8.502;2022-09-02T07:47:59;0.95;;;0.80;;
12048;SDS011;6085;49.452;8.502;2022-09-02T07:52:03;2.20;;;1.30;;
12048;SDS011;6085;49.452;8.502;2022-09-02T07:56:05;1.20;;;1.10;;
12048;SDS011;6085;49.452;8.502;2022-09-02T08:00:07;2.47;;;1.33;;
12048;SDS011;6085;49.452;8.502;2022-09-02T08:04:11;1.27;;;1.17;;
12048;SDS011;6085;49.452;8.502;2022-09-02T08:08:15;1.20;;;1.20;;
12048;SDS011;6085;49.452;8.502;2022-09-02T08:12:19;2.25;;;1.23;;
12048;SDS011;6085;49.452;8.502;2022-09-02T08:16:21;1.00;;;1.00;;
12048;SDS011;6085;49.452;8.502;2022-09-02T08:20:23;1.67;;;1.08;;
12048;SDS011;6085;49.452;8.502;2022-09-02T08:24:29;1.40;;;1.30;;
12048;SDS011;6085;49.452;8.502;2022-09-02T08:28:31;1.27;;;1.05;;
12048;SDS011;6085;49.452;8.502;2022-09-02T08:32:33;1.60;;;1.33;;
12048;SDS011;6085;49.452;8.502;2022-09-02T08:36:35;2.28;;;1.20;;
12048;SDS011;6085;49.452;8.502;2022-09-02T08:40:40;1.05;;;1.05;;
12048;SDS011;6085;49.452;8.502;2022-09-02T08:44:44;1.75;;;1.02;;
12048;SDS011;6085;49.452;8.502;2022-09-02T08:48:48;1.00;;;1.00;;
12048;SDS011;6085;49.452;8.502;2022-09-02T08:52:55;1.20;;;1.10;;
12048;SDS011;6085;49.452;8.502;2022-09-02T08:57:03;3.33;;;1.30;;
12048;SDS011;6085;49.452;8.502;2022-09-02T09:01:08;1.65;;;1.20;;
12048;SDS011;6085;49.452;8.502;2022-09-02T09:05:18;1.00;;;1.00;;
12048;SDS011;6085;49.452;8.502;2022-09-02T09:09:29;2.20;;;1.45;;
12048;SDS011;6085;49.452;8.502;2022-09-02T09:13:52;1.65;;;1.25;;
12048;SDS011;6085;49.452;8.502;2022-09-02T09:18:03;1.38;;;1.15;;
12048;SDS011;6085;49.452;8.502;2022-09-02T09:22:08;1.92;;;0.90;;
12048;SDS011;6085;49.452;8.502;2022-09-02T09:26:12;1.02;;;0.90;;
12048;SDS011;6085;49.452;8.502;2022-09-02T09:30:19;1.80;;;1.10;;
12048;SDS011;6085;49.452;8.502;2022-09-02T09:34:20;1.08;;;1.05;;
12048;SDS011;6085;49.452;8.502;2022-09-02T09:38:29;0.90;;;0.90;;
12048;SDS011;6085;49.452;8.502;2022-09-02T09:42:32;1.25;;;1.05;;
12048;SDS011;6085;49.452;8.502;2022-09-02T09:46:37;1.35;;;0.82;;
12048;SDS011;6085;49.452;8.502;2022-09-02T09:50:39;0.95;;;0.93;;
12048;SDS011;6085;49.452;8.502;2022-09-02T09:54:42;2.25;;;1.20;;
12048;SDS011;6085;49.452;8.502;2022-09-02T09:58:45;0.82;;;0.82;;
12048;SDS011;6085;49.452;8.502;2022-09-02T10:02:50;1.23;;;1.10;;
12048;SDS011;6085;49.452;8.502;2022-09-02T10:06:55;0.90;;;0.90;;
12048;SDS011;6085;49.452;8.502;2022-09-02T10:10:58;1.00;;;0.90;;
12048;SDS011;6085;49.452;8.502;2022-09-02T10:15:01;1.85;;;1.17;;
12048;SDS011;6085;49.452;8.502;2022-09-02T10:19:06;1.25;;;1.15;;
12048;SDS011;6085;49.452;8.502;2022-09-02T10:23:24;1.73;;;1.00;;
12048;SDS011;6085;49.452;8.502;2022-09-02T10:27:40;2.55;;;1.98;;
12048;SDS011;6085;49.452;8.502;2022-09-02T10:31:49;0.65;;;0.65;;
12048;SDS011;6085;49.452;8.502;2022-09-02T10:36:02;1.70;;;1.10;;
12048;SDS011;6085;49.452;8.502;2022-09-02T10:40:11;1.30;;;0.90;;
12048;SDS011;6085;49.452;8.502;2022-09-02T10:44:20;2.70;;;1.30;;
12048;SDS011;6085;49.452;8.502;2022-09-02T10:48:34;1.10;;;0.90;;
12048;SDS011;6085;49.452;8.502;2022-09-02T10:52:52;1.50;;;1.00;;
12048;SDS011;6085;49.452;8.502;2022-09-02T10:57:15;1.35;;;0.90;;
12048;SDS011;6085;49.452;8.502;2022-09-02T11:01:21;1.10;;;1.00;;
12048;SDS011;6085;49.452;8.502;2022-09-02T11:05:27;2.38;;;1.10;;
12048;SDS011;6085;49.452;8.502;2022-09-02T11:09:35;1.38;;;0.80;;
12048;SDS011;6085;49.452;8.502;2022-09-02T11:13:43;0.70;;;0.70;;
12048;SDS011;6085;49.452;8.502;2022-09-02T11:17:59;1.23;;;1.17;;
12048;SDS011;6085;49.452;8.502;2022-09-02T11:22:06;0.95;;;0.82;;
12048;SDS011;6085;49.452;8.502;2022-09-02T11:26:19;1.17;;;0.93;;
12048;SDS011;6085;49.452;8.502;2022-09-02T11:30:26;1.52;;;0.88;;
12048;SDS011;6085;49.452;8.502;2022-09-02T11:34:38;1.77;;;1.20;;
12048;SDS011;6085;49.452;8.502;2022-09-02T11:38:47;0.93;;;0.77;;
12048;SDS011;6085;49.452;8.502;2022-09-02T11:43:16;0.82;;;0.82;;
12048;SDS011;6085;49.452;8.502;2022-09-02T11:47:33;1.23;;;0.90;;
12048;SDS011;6085;49.452;8.502;2022-09-02T11:52:00;0.90;;;0.90;;
12048;SDS011;6085;49.452;8.502;2022-09-02T11:56:07;1.05;;;0.65;;
12048;SDS011;6085;49.452;8.502;2022-09-02T12:00:24;0.90;;;0.90;;
12048;SDS011;6085;49.452;8.502;2022-09-02T12:04:29;1.95;;;1.00;;
12048;SDS011;6085;49.452;8.502;2022-09-02T12:13:10;1.05;;;1.05;;
12048;SDS011;6085;49.452;8.502;2022-09-02T12:17:35;1.15;;;1.05;;
12048;SDS011;6085;49.452;8.502;2022-09-02T12:22:20;0.85;;;0.85;;
12048;SDS011;6085;49.452;8.502;2022-09-02T12:26:27;1.00;;;1.00;;
12048;SDS011;6085;49.452;8.502;2022-09-02T12:35:09;1.10;;;0.73;;
12048;SDS011;6085;49.452;8.502;2022-09-02T12:44:07;0.93;;;0.90;;
12048;SDS011;6085;49.452;8.502;2022-09-02T12:48:23;0.82;;;0.80;;
12048;SDS011;6085;49.452;8.502;2022-09-02T12:52:43;0.80;;;0.80;;
12048;SDS011;6085;49.452;8.502;2022-09-02T12:56:46;0.82;;;0.82;;
12048;SDS011;6085;49.452;8.502;2022-09-02T13:00:53;1.00;;;1.00;;
12048;SDS011;6085;49.452;8.502;2022-09-02T13:05:03;0.82;;;0.82;;
12048;SDS011;6085;49.452;8.502;2022-09-02T13:09:21;1.35;;;0.98;;
12048;SDS011;6085;49.452;8.502;2022-09-02T13:27:46;0.70;;;0.70;;
12048;SDS011;6085;49.452;8.502;2022-09-02T13:32:09;1.20;;;0.80;;
12048;SDS011;6085;49.452;8.502;2022-09-02T13:36:20;2.25;;;0.95;;
12048;SDS011;6085;49.452;8.502;2022-09-02T13:40:27;2.08;;;1.23;;
12048;SDS011;6085;49.452;8.502;2022-09-02T13:44:33;1.55;;;0.90;;
12048;SDS011;6085;49.452;8.502;2022-09-02T13:48:36;1.23;;;0.80;;
12048;SDS011;6085;49.452;8.502;2022-09-02T13:52:40;1.85;;;0.90;;
12048;SDS011;6085;49.452;8.502;2022-09-02T13:56:43;1.42;;;1.00;;
12048;SDS011;6085;49.452;8.502;2022-09-02T14:00:47;1.45;;;1.02;;
12048;SDS011;6085;49.452;8.502;2022-09-02T14:04:50;1.77;;;0.90;;
12048;SDS011;6085;49.452;8.502;2022-09-02T14:08:56;1.55;;;0.80;;
12048;SDS011;6085;49.452;8.502;2022-09-02T14:13:01;0.90;;;0.90;;
12048;SDS011;6085;49.452;8.502;2022-09-02T14:17:18;0.73;;;0.73;;
12048;SDS011;6085;49.452;8.502;2022-09-02T14:21:21;0.77;;;0.70;;
12048;SDS011;6085;49.452;8.502;2022-09-02T14:25:23;0.80;;;0.80;;
12048;SDS011;6085;49.452;8.502;2022-09-02T14:29:27;0.80;;;0.80;;
12048;SDS011;6085;49.452;8.502;2022-09-02T14:33:39;1.05;;;1.00;;
12048;SDS011;6085;49.452;8.502;2022-09-02T14:37:49;1.02;;;1.02;;
12048;SDS011;6085;49.452;8.502;2022-09-02T14:41:52;1.20;;;0.70;;
12048;SDS011;6085;49.452;8.502;2022-09-02T14:46:03;0.88;;;0.77;;
12048;SDS011;6085;49.452;8.502;2022-09-02T14:50:09;0.88;;;0.88;;
12048;SDS011;6085;49.452;8.502;2022-09-02T14:54:32;0.63;;;0.63;;
12048;SDS011;6085;49.452;8.502;2022-09-02T14:58:36;0.70;;;0.70;;
12048;SDS011;6085;49.452;8.502;2022-09-02T15:02:39;0.82;;;0.82;;
12048;SDS011;6085;49.452;8.502;2022-09-02T15:06:44;2.83;;;0.82;;
12048;SDS011;6085;49.452;8.502;2022-09-02T15:10:47;1.48;;;0.80;;
12048;SDS011;6085;49.452;8.502;2022-09-02T15:14:49;0.90;;;0.90;;
12048;SDS011;6085;49.452;8.502;2022-09-02T15:18:51;1.08;;;0.90;;
12048;SDS011;6085;49.452;8.502;2022-09-02T15:22:55;0.70;;;0.70;;
12048;SDS011;6085;49.452;8.502;2022-09-02T15:26:57;0.80;;;0.80;;
12048;SDS011;6085;49.452;8.502;2022-09-02T15:30:59;3.22;;;0.93;;
12048;SDS011;6085;49.452;8.502;2022-09-02T15:35:02;1.33;;;0.73;;
12048;SDS011;6085;49.452;8.502;2022-09-02T15:39:05;1.08;;;0.80;;
12048;SDS011;6085;49.452;8.502;2022-09-02T15:43:07;0.70;;;0.70;;
12048;SDS011;6085;49.452;8.502;2022-09-02T15:47:09;0.73;;;0.60;;
12048;SDS011;6085;49.452;8.502;2022-09-02T15:51:11;0.63;;;0.63;;
12048;SDS011;6085;49.452;8.502;2022-09-02T15:55:15;0.90;;;0.80;;
12048;SDS011;6085;49.452;8.502;2022-09-02T15:59:17;1.38;;;0.85;;
12048;SDS011;6085;49.452;8.502;2022-09-02T16:03:21;2.17;;;0.60;;
12048;SDS011;6085;49.452;8.502;2022-09-02T16:07:22;0.80;;;0.80;;
12048;SDS011;6085;49.452;8.502;2022-09-02T16:11:26;3.03;;;0.93;;
12048;SDS011;6085;49.452;8.502;2022-09-02T16:15:27;1.70;;;0.68;;
12048;SDS011;6085;49.452;8.502;2022-09-02T16:19:29;1.98;;;0.93;;
12048;SDS011;6085;49.452;8.502;2022-09-02T16:23:31;3.88;;;1.20;;
12048;SDS011;6085;49.452;8.502;2022-09-02T16:27:35;1.20;;;0.73;;
12048;SDS011;6085;49.452;8.502;2022-09-02T16:31:52;3.88;;;1.40;;
12048;SDS011;6085;49.452;8.502;2022-09-02T16:35:54;1.80;;;0.77;;
12048;SDS011;6085;49.452;8.502;2022-09-02T16:39:56;0.90;;;0.75;;
12048;SDS011;6085;49.452;8.502;2022-09-02T16:43:59;1.77;;;0.65;;
12048;SDS011;6085;49.452;8.502;2022-09-02T16:48:03;2.65;;;0.93;;
12048;SDS011;6085;49.452;8.502;2022-09-02T16:52:05;1.02;;;0.90;;
12048;SDS011;6085;49.452;8.502;2022-09-02T16:56:09;0.90;;;0.90;;
12048;SDS011;6085;49.452;8.502;2022-09-02T17:00:14;2.50;;;0.93;;
12048;SDS011;6085;49.452;8.502;2022-09-02T17:04:17;0.85;;;0.80;;
12048;SDS011;6085;49.452;8.502;2022-09-02T17:08:18;0.85;;;0.80;;
12048;SDS011;6085;49.452;8.502;2022-09-02T17:12:20;2.95;;;0.80;;
12048;SDS011;6085;49.452;8.502;2022-09-02T17:16:24;2.80;;;1.00;;
12048;SDS011;6085;49.452;8.502;2022-09-02T17:20:27;1.92;;;1.30;;
12048;SDS011;6085;49.452;8.502;2022-09-02T17:24:29;1.30;;;1.20;;
12048;SDS011;6085;49.452;8.502;2022-09-02T17:28:31;2.28;;;1.15;;
12048;SDS011;6085;49.452;8.502;2022-09-02T17:32:34;0.85;;;0.85;;
12048;SDS011;6085;49.452;8.502;2022-09-02T17:36:37;0.80;;;0.75;;
12048;SDS011;6085;49.452;8.502;2022-09-02T17:40:40;0.80;;;0.80;;
12048;SDS011;6085;49.452;8.502;2022-09-02T17:45:03;0.95;;;0.80;;
12048;SDS011;6085;49.452;8.502;2022-09-02T17:49:07;1.48;;;0.80;;
12048;SDS011;6085;49.452;8.502;2022-09-02T17:53:09;1.00;;;1.00;;
12048;SDS011;6085;49.452;8.502;2022-09-02T17:57:19;1.35;;;0.90;;
12048;SDS011;6085;49.452;8.502;2022-09-02T18:01:24;2.20;;;1.17;;
12048;SDS011;6085;49.452;8.502;2022-09-02T18:05:30;2.28;;;0.90;;
12048;SDS011;6085;49.452;8.502;2022-09-02T18:09:44;1.77;;;0.90;;
12048;SDS011;6085;49.452;8.502;2022-09-02T18:13:48;1.05;;;0.93;;
12048;SDS011;6085;49.452;8.502;2022-09-02T18:17:55;1.00;;;1.00;;
12048;SDS011;6085;49.452;8.502;2022-09-02T18:22:02;1.67;;;0.80;;
12048;SDS011;6085;49.452;8.502;2022-09-02T18:26:11;1.05;;;0.77;;
12048;SDS011;6085;49.452;8.502;2022-09-02T18:30:24;1.35;;;1.02;;
12048;SDS011;6085;49.452;8.502;2022-09-02T18:34:35;1.08;;;1.05;;
12048;SDS011;6085;49.452;8.502;2022-09-02T18:38:51;1.10;;;1.00;;
12048;SDS011;6085;49.452;8.502;2022-09-02T18:42:59;1.20;;;0.77;;
12048;SDS011;6085;49.452;8.502;2022-09-02T18:47:13;2.05;;;1.05;;
12048;SDS011;6085;49.452;8.502;2022-09-02T18:51:20;1.70;;;0.77;;
12048;SDS011;6085;49.452;8.502;2022-09-02T18:55:31;1.73;;;0.90;;
12048;SDS011;6085;49.452;8.502;2022-09-02T18:59:36;0.90;;;0.80;;
12048;SDS011;6085;49.452;8.502;2022-09-02T19:03:42;1.38;;;1.00;;
12048;SDS011;6085;49.452;8.502;2022-09-02T19:07:44;1.50;;;0.88;;
12048;SDS011;6085;49.452;8.502;2022-09-02T19:12:05;1.73;;;0.90;;
12048;SDS011;6085;49.452;8.502;2022-09-02T19:16:09;1.20;;;1.10;;
12048;SDS011;6085;49.452;8.502;2022-09-02T19:20:11;0.98;;;0.98;;
12048;SDS011;6085;49.452;8.502;2022-09-02T19:24:15;0.90;;;0.90;;
12048;SDS011;6085;49.452;8.502;2022-09-02T19:28:25;0.88;;;0.82;;
12048;SDS011;6085;49.452;8.502;2022-09-02T19:32:28;1.10;;;1.00;;
12048;SDS011;6085;49.452;8.502;2022-09-02T19:36:33;1.30;;;1.20;;
12048;SDS011;6085;49.452;8.502;2022-09-02T19:40:39;1.65;;;1.13;;
12048;SDS011;6085;49.452;8.502;2022-09-02T19:44:43;1.83;;;1.20;;
12048;SDS011;6085;49.452;8.502;2022-09-02T19:48:45;1.00;;;1.00;;
12048;SDS011;6085;49.452;8.502;2022-09-02T19:52:47;1.50;;;1.10;;
12048;SDS011;6085;49.452;8.502;2022-09-02T19:56:49;1.25;;;0.95;;
12048;SDS011;6085;49.452;8.502;2022-09-02T20:00:53;1.05;;;0.95;;
12048;SDS011;6085;49.452;8.502;2022-09-02T20:04:56;1.00;;;0.93;;
12048;SDS011;6085;49.452;8.502;2022-09-02T20:08:57;1.17;;;1.00;;
12048;SDS011;6085;49.452;8.502;2022-09-02T20:12:59;0.90;;;0.90;;
12048;SDS011;6085;49.452;8.502;2022-09-02T20:17:03;1.52;;;0.70;;
12048;SDS011;6085;49.452;8.502;2022-09-02T20:21:08;0.80;;;0.80;;
12048;SDS011;6085;49.452;8.502;2022-09-02T20:25:11;1.13;;;0.65;;
12048;SDS011;6085;49.452;8.502;2022-09-02T20:29:17;0.90;;;0.90;;
12048;SDS011;6085;49.452;8.502;2022-09-02T20:33:30;0.82;;;0.80;;
12048;SDS011;6085;49.452;8.502;2022-09-02T20:37:40;0.73;;;0.73;;
12048;SDS011;6085;49.452;8.502;2022-09-02T20:41:52;0.90;;;0.90;;
12048;SDS011;6085;49.452;8.502;2022-09-02T20:46:05;0.82;;;0.80;;
12048;SDS011;6085;49.452;8.502;2022-09-02T20:50:33;1.25;;;0.90;;
12048;SDS011;6085;49.452;8.502;2022-09-02T20:54:45;2.00;;;0.80;;
12048;SDS011;6085;49.452;8.502;2022-09-02T20:58:55;2.25;;;0.90;;
12048;SDS011;6085;49.452;8.502;2022-09-02T21:03:03;0.80;;;0.80;;
12048;SDS011;6085;49.452;8.502;2022-09-02T21:07:11;1.48;;;0.82;;
12048;SDS011;6085;49.452;8.502;2022-09-02T21:11:17;2.35;;;1.10;;
12048;SDS011;6085;49.452;8.502;2022-09-02T21:15:24;1.65;;;1.55;;
12048;SDS011;6085;49.452;8.502;2022-09-02T21:19:31;0.80;;;0.80;;
12048;SDS011;6085;49.452;8.502;2022-09-02T21:23:37;0.90;;;0.90;;
12048;SDS011;6085;49.452;8.502;2022-09-02T21:27:44;2.28;;;0.80;;
12048;SDS011;6085;49.452;8.502;2022-09-02T21:31:51;0.70;;;0.70;;
12048;SDS011;6085;49.452;8.502;2022-09-02T21:35:57;0.88;;;0.88;;
12048;SDS011;6085;49.452;8.502;2022-09-02T21:40:02;1.70;;;1.00;;
12048;SDS011;6085;49.452;8.502;2022-09-02T21:44:07;0.80;;;0.80;;
12048;SDS011;6085;49.452;8.502;2022-09-02T21:48:21;2.03;;;1.10;;
12048;SDS011;6085;49.452;8.502;2022-09-02T21:52:37;1.52;;;0.90;;
12048;SDS011;6085;49.452;8.502;2022-09-02T21:56:53;2.35;;;0.98;;
12048;SDS011;6085;49.452;8.502;2022-09-02T22:01:03;0.70;;;0.70;;
12048;SDS011;6085;49.452;8.502;2022-09-02T22:05:10;1.65;;;1.08;;
12048;SDS011;6085;49.452;8.502;2022-09-02T22:09:21;0.90;;;0.90;;
12048;SDS011;6085;49.452;8.502;2022-09-02T22:13:29;0.95;;;0.90;;
12048;SDS011;6085;49.452;8.502;2022-09-02T22:17:33;2.50;;;1.17;;
12048;SDS011;6085;49.452;8.502;2022-09-02T22:21:39;0.88;;;0.88;;
12048;SDS011;6085;49.452;8.502;2022-09-02T22:25:47;0.88;;;0.88;;
12048;SDS011;6085;49.452;8.502;2022-09-02T22:29:51;1.10;;;1.10;;
12048;SDS011;6085;49.452;8.502;2022-09-02T22:34:02;1.73;;;0.90;;
12048;SDS011;6085;49.452;8.502;2022-09-02T22:38:07;1.85;;;0.77;;
12048;SDS011;6085;49.452;8.502;2022-09-02T22:42:16;1.52;;;0.80;;
12048;SDS011;6085;49.452;8.502;2022-09-02T22:46:26;0.90;;;0.88;;
12048;SDS011;6085;49.452;8.502;2022-09-02T22:50:50;0.88;;;0.88;;
12048;SDS011;6085;49.452;8.502;2022-09-02T22:55:13;1.77;;;0.93;;
12048;SDS011;6085;49.452;8.502;2022-09-02T22:59:36;1.23;;;1.10;;
12048;SDS011;6085;49.452;8.502;2022-09-02T23:03:51;0.82;;;0.82;;
12048;SDS011;6085;49.452;8.502;2022-09-02T23:08:00;1.55;;;1.00;;
12048;SDS011;6085;49.452;8.502;2022-09-02T23:12:06;1.10;;;1.00;;
12048;SDS011;6085;49.452;8.502;2022-09-02T23:16:17;1.52;;;0.75;;
12048;SDS011;6085;49.452;8.502;2022-09-02T23:20:28;1.05;;;0.90;;
12048;SDS011;6085;49.452;8.502;2022-09-02T23:24:45;1.05;;;1.05;;
12048;SDS011;6085;49.452;8.502;2022-09-02T23:28:59;1.02;;;0.90;;
12048;SDS011;6085;49.452;8.502;2022-09-02T23:33:14;1.42;;;0.80;;
12048;SDS011;6085;49.452;8.502;2022-09-02T23:37:34;0.90;;;0.90;;
12048;SDS011;6085;49.452;8.502;2022-09-02T23:41:42;0.73;;;0.73;;
12048;SDS011;6085;49.452;8.502;2022-09-02T23:45:44;1.20;;;0.82;;
12048;SDS011;6085;49.452;8.502;2022-09-02T23:49:49;0.80;;;0.80;;
12048;SDS011;6085;49.452;8.502;2022-09-02T23:54:02;1.05;;;0.98;;
12048;SDS011;6085;49.452;8.502;2022-09-02T23:58:22;0.98;;;0.98;;
